Time;durP1;ratioP1;P1;durP2;ratioP2;P2;SDS_P1;SDS_P2;PMS_P1;PMS_P2;Temp;Humidity;BMP_temperature;BMP_pressure;BME280_temperature;BME280_humidity;BME280_pressure;Samples;Min_cycle;Max_cycle;Signal;HPM_P1;HPM_P2
2023/07/04 00:02:13;;;;;;;21.73;4.32;;;;;;;;;;5226316;28;20024;-72
2023/07/04 00:04:44;;;;;;;26.20;4.60;;;;;;;;;;5226350;28;20023;-72
2023/07/04 00:07:14;;;;;;;22.17;3.92;;;;;;;;;;5225993;28;20024;-72
2023/07/04 00:09:45;;;;;;;21.70;3.65;;;;;;;;;;5226368;28;20439;-72
2023/07/04 00:12:16;;;;;;;25.13;4.00;;;;;;;;;;5226094;28;20028;-72
2023/07/04 00:14:46;;;;;;;26.90;4.13;;;;;;;;;;5226197;28;20021;-72
2023/07/04 00:17:18;;;;;;;22.17;3.83;;;;;;;;;;5222730;28;20037;-72
2023/07/04 00:19:50;;;;;;;23.42;4.13;;;;;;;;;;5215938;28;20029;-72
2023/07/04 00:22:21;;;;;;;19.15;3.88;;;;;;;;;;5225695;28;20065;-72
2023/07/04 00:24:51;;;;;;;24.83;3.97;;;;;;;;;;5225726;28;20108;-72
2023/07/04 00:27:23;;;;;;;21.27;3.95;;;;;;;;;;5225513;28;20092;-72
2023/07/04 00:29:54;;;;;;;22.48;3.55;;;;;;;;;;5226109;28;20433;-72
2023/07/04 00:32:25;;;;;;;18.25;4.60;;;;;;;;;;5226425;28;20020;-72
2023/07/04 00:34:55;;;;;;;20.90;5.60;;;;;;;;;;5226284;28;20024;-72
2023/07/04 00:37:28;;;;;;;21.45;4.13;;;;;;;;;;5225459;28;20021;-71
2023/07/04 00:40:01;;;;;;;22.58;3.92;;;;;;;;;;5227865;28;20266;-71
2023/07/04 00:42:35;;;;;;;25.95;4.13;;;;;;;;;;5227315;28;20363;-71
2023/07/04 00:45:24;;;;;;;28.38;4.43;;;;;;;;;;5228043;28;20024;-70
2023/07/04 00:47:59;;;;;;;29.45;4.38;;;;;;;;;;5226767;28;20483;-71
2023/07/04 00:50:31;;;;;;;25.63;4.90;;;;;;;;;;5227677;28;20013;-71
2023/07/04 00:53:04;;;;;;;26.23;4.60;;;;;;;;;;5229244;28;20118;-70
2023/07/04 00:55:37;;;;;;;20.38;4.53;;;;;;;;;;5227277;28;20017;-71
2023/07/04 00:58:09;;;;;;;20.35;4.05;;;;;;;;;;5225753;28;20028;-72
2023/07/04 01:00:39;;;;;;;26.08;4.75;;;;;;;;;;5225851;28;20171;-72
2023/07/04 01:03:11;;;;;;;21.80;4.47;;;;;;;;;;5224704;28;20526;-71
2023/07/04 01:06:00;;;;;;;17.33;4.18;;;;;;;;;;5225402;28;20028;-71
2023/07/04 01:08:34;;;;;;;20.80;4.47;;;;;;;;;;5225416;28;20021;-71
2023/07/04 01:11:07;;;;;;;18.35;3.70;;;;;;;;;;5225595;28;20029;-72
2023/07/04 01:13:39;;;;;;;25.48;4.40;;;;;;;;;;5225768;28;20021;-72
2023/07/04 01:16:11;;;;;;;20.02;4.30;;;;;;;;;;5224772;28;20059;-72
2023/07/04 01:18:43;;;;;;;27.85;4.28;;;;;;;;;;5211798;28;20556;-72
2023/07/04 01:21:17;;;;;;;33.95;5.20;;;;;;;;;;5224933;28;20399;-72
2023/07/04 01:23:54;;;;;;;24.63;3.65;;;;;;;;;;5225087;28;20483;-72
2023/07/04 01:26:41;;;;;;;23.42;4.60;;;;;;;;;;5225806;28;20013;-71
2023/07/04 01:29:13;;;;;;;22.58;4.43;;;;;;;;;;5226748;28;20021;-71
2023/07/04 01:31:44;;;;;;;37.88;5.78;;;;;;;;;;5226159;28;20082;-71
2023/07/04 01:34:17;;;;;;;27.75;4.53;;;;;;;;;;5225247;28;20017;-72
2023/07/04 01:36:49;;;;;;;23.92;4.72;;;;;;;;;;5224503;28;20052;-72
2023/07/04 01:39:19;;;;;;;35.38;5.68;;;;;;;;;;5225022;28;20029;-72
2023/07/04 01:42:06;;;;;;;22.07;5.07;;;;;;;;;;5224803;28;20024;-72
2023/07/04 01:44:38;;;;;;;25.00;4.90;;;;;;;;;;5225130;28;20770;-71
2023/07/04 01:47:08;;;;;;;25.27;5.45;;;;;;;;;;5225142;28;20016;-72
2023/07/04 01:49:38;;;;;;;37.38;5.97;;;;;;;;;;5224720;28;20496;-72
2023/07/04 01:52:09;;;;;;;30.38;5.47;;;;;;;;;;5224853;28;20386;-72
2023/07/04 01:54:39;;;;;;;25.33;4.25;;;;;;;;;;5224284;28;20033;-72
2023/07/04 01:57:10;;;;;;;22.08;4.22;;;;;;;;;;5224421;28;20537;-72
2023/07/04 01:59:40;;;;;;;23.83;5.25;;;;;;;;;;5224584;28;20029;-72
2023/07/04 02:02:11;;;;;;;26.98;5.05;;;;;;;;;;5224566;28;20390;-72
2023/07/04 02:04:41;;;;;;;27.25;4.40;;;;;;;;;;5224346;28;20103;-72
2023/07/04 02:07:11;;;;;;;27.40;4.78;;;;;;;;;;5223891;28;20382;-72
2023/07/04 02:09:42;;;;;;;20.08;4.57;;;;;;;;;;5224394;28;20398;-71
2023/07/04 02:12:12;;;;;;;29.45;4.65;;;;;;;;;;5224730;28;20119;-72
2023/07/04 02:14:43;;;;;;;29.75;5.65;;;;;;;;;;5224244;28;20021;-71
2023/07/04 02:17:13;;;;;;;23.10;4.68;;;;;;;;;;5223431;28;20053;-72
2023/07/04 02:19:43;;;;;;;32.50;5.93;;;;;;;;;;5224200;28;20020;-71
2023/07/04 02:22:14;;;;;;;29.98;5.13;;;;;;;;;;5224058;28;20033;-71
2023/07/04 02:24:44;;;;;;;24.85;5.15;;;;;;;;;;5224412;28;20395;-71
2023/07/04 02:27:14;;;;;;;25.20;4.45;;;;;;;;;;5224008;28;20091;-72
2023/07/04 02:29:46;;;;;;;27.05;4.70;;;;;;;;;;5222985;28;20013;-71
2023/07/04 02:32:16;;;;;;;22.95;4.55;;;;;;;;;;5224656;28;20421;-72
2023/07/04 02:34:47;;;;;;;29.92;5.30;;;;;;;;;;5224201;28;20040;-71
2023/07/04 02:37:17;;;;;;;26.65;5.80;;;;;;;;;;5223966;28;20083;-71
2023/07/04 02:39:49;;;;;;;24.70;5.10;;;;;;;;;;5224119;28;20025;-71
2023/07/04 02:42:20;;;;;;;19.88;4.32;;;;;;;;;;5224325;28;20106;-72
2023/07/04 02:44:50;;;;;;;26.92;5.40;;;;;;;;;;5224204;28;20463;-71
2023/07/04 02:47:26;;;;;;;20.50;4.65;;;;;;;;;;5224076;28;20096;-71
2023/07/04 02:49:56;;;;;;;28.60;5.07;;;;;;;;;;5223986;28;20025;-71
2023/07/04 02:52:26;;;;;;;25.23;4.88;;;;;;;;;;5224234;28;20025;-71
2023/07/04 02:54:56;;;;;;;21.58;5.18;;;;;;;;;;5223627;28;20098;-71
2023/07/04 02:57:27;;;;;;;24.92;5.35;;;;;;;;;;5223774;28;20009;-71
2023/07/04 02:59:59;;;;;;;21.33;4.20;;;;;;;;;;5223872;28;20025;-71
2023/07/04 03:02:29;;;;;;;24.92;5.45;;;;;;;;;;5223963;28;20452;-71
2023/07/04 03:04:59;;;;;;;22.70;5.35;;;;;;;;;;5224002;28;20047;-71
2023/07/04 03:07:30;;;;;;;24.17;4.85;;;;;;;;;;5223283;28;20052;-72
2023/07/04 03:10:00;;;;;;;25.02;4.95;;;;;;;;;;5224016;28;20013;-71
2023/07/04 03:12:30;;;;;;;25.55;5.13;;;;;;;;;;5224027;28;20025;-72
2023/07/04 03:15:00;;;;;;;30.30;5.80;;;;;;;;;;5223975;28;20089;-71
2023/07/04 03:17:31;;;;;;;23.00;5.82;;;;;;;;;;5218515;28;20437;-71
2023/07/04 03:20:05;;;;;;;31.58;5.70;;;;;;;;;;5214808;28;20424;-71
2023/07/04 03:22:37;;;;;;;27.58;5.30;;;;;;;;;;5223671;28;20548;-71
2023/07/04 03:25:08;;;;;;;28.00;5.38;;;;;;;;;;5223724;28;20031;-71
2023/07/04 03:27:39;;;;;;;25.02;5.28;;;;;;;;;;5226715;28;20058;-72
2023/07/04 03:30:10;;;;;;;29.10;5.05;;;;;;;;;;5227083;28;20028;-71
2023/07/04 03:32:40;;;;;;;30.73;4.38;;;;;;;;;;5227311;28;20021;-71
2023/07/04 03:35:10;;;;;;;28.88;5.82;;;;;;;;;;5227195;28;20437;-71
2023/07/04 03:37:41;;;;;;;26.98;5.45;;;;;;;;;;5227410;28;20139;-71
2023/07/04 03:40:11;;;;;;;26.10;4.85;;;;;;;;;;5227585;28;20025;-71
2023/07/04 03:42:41;;;;;;;23.20;4.60;;;;;;;;;;5227122;28;20462;-71
2023/07/04 03:45:12;;;;;;;22.23;4.85;;;;;;;;;;5226881;28;20017;-71
2023/07/04 03:47:42;;;;;;;24.40;4.55;;;;;;;;;;5226636;28;20463;-71
2023/07/04 03:50:13;;;;;;;26.33;5.38;;;;;;;;;;5227132;28;20009;-71
2023/07/04 03:52:43;;;;;;;28.77;4.90;;;;;;;;;;5227089;28;20055;-71
2023/07/04 03:55:14;;;;;;;32.47;5.93;;;;;;;;;;5227139;28;20521;-71
2023/07/04 03:57:44;;;;;;;24.42;5.05;;;;;;;;;;5226431;28;20117;-71
2023/07/04 04:00:14;;;;;;;28.75;6.25;;;;;;;;;;5226975;28;20448;-71
2023/07/04 04:02:45;;;;;;;29.88;5.47;;;;;;;;;;5226683;28;20036;-71
2023/07/04 04:05:15;;;;;;;32.67;4.78;;;;;;;;;;5226648;28;20099;-71
2023/07/04 04:07:48;;;;;;;27.65;5.32;;;;;;;;;;5226310;28;20422;-71
2023/07/04 04:10:19;;;;;;;33.55;6.38;;;;;;;;;;5226776;28;20009;-71
2023/07/04 04:12:49;;;;;;;27.60;5.47;;;;;;;;;;5226873;28;20025;-71
2023/07/04 04:15:19;;;;;;;26.85;6.05;;;;;;;;;;5226894;28;20470;-71
2023/07/04 04:17:49;;;;;;;22.10;4.93;;;;;;;;;;5225962;28;20024;-71
2023/07/04 04:20:20;;;;;;;26.65;5.30;;;;;;;;;;5226084;28;20017;-71
2023/07/04 04:22:50;;;;;;;24.95;5.85;;;;;;;;;;5226353;28;20035;-71
2023/07/04 04:25:20;;;;;;;36.53;5.88;;;;;;;;;;5226216;28;20392;-71
2023/07/04 04:27:51;;;;;;;24.70;5.63;;;;;;;;;;5226039;28;20025;-71
2023/07/04 04:30:21;;;;;;;40.58;6.50;;;;;;;;;;5226258;28;20100;-71
2023/07/04 04:32:51;;;;;;;29.15;4.95;;;;;;;;;;5226511;28;20280;-71
2023/07/04 04:35:21;;;;;;;22.83;5.03;;;;;;;;;;5225909;28;20036;-71
2023/07/04 04:37:52;;;;;;;32.60;6.00;;;;;;;;;;5225914;28;20406;-71
2023/07/04 04:40:22;;;;;;;27.58;5.55;;;;;;;;;;5226071;28;20021;-71
2023/07/04 04:42:55;;;;;;;26.88;4.65;;;;;;;;;;5226095;28;20509;-71
2023/07/04 04:45:25;;;;;;;24.90;5.47;;;;;;;;;;5212218;28;20017;-71
2023/07/04 04:47:56;;;;;;;32.00;5.47;;;;;;;;;;5225362;28;20383;-72
2023/07/04 04:50:30;;;;;;;35.00;5.65;;;;;;;;;;5226030;28;20060;-71
2023/07/04 04:53:00;;;;;;;35.80;5.47;;;;;;;;;;5225877;28;20070;-71
2023/07/04 04:55:31;;;;;;;36.78;5.63;;;;;;;;;;5225713;28;20425;-71
2023/07/04 04:58:01;;;;;;;24.58;5.53;;;;;;;;;;5225125;28;20087;-71
2023/07/04 05:00:31;;;;;;;28.13;6.30;;;;;;;;;;5228526;28;20466;-71
2023/07/04 05:03:01;;;;;;;25.73;4.93;;;;;;;;;;5225493;28;20028;-71
2023/07/04 05:05:32;;;;;;;26.42;5.35;;;;;;;;;;5225523;28;20025;-71
2023/07/04 05:08:02;;;;;;;32.83;5.45;;;;;;;;;;5225068;28;20497;-71
2023/07/04 05:10:32;;;;;;;25.75;5.32;;;;;;;;;;5225294;28;20512;-72
2023/07/04 05:13:03;;;;;;;28.45;6.38;;;;;;;;;;5225618;28;20021;-71
2023/07/04 05:15:33;;;;;;;27.13;5.05;;;;;;;;;;5225270;28;20021;-72
2023/07/04 05:18:03;;;;;;;27.80;4.85;;;;;;;;;;5216007;28;20021;-72
2023/07/04 05:20:34;;;;;;;37.90;5.20;;;;;;;;;;5220756;28;20023;-71
2023/07/04 05:23:06;;;;;;;35.83;5.93;;;;;;;;;;5223916;28;20064;-72
2023/07/04 05:25:37;;;;;;;26.13;5.18;;;;;;;;;;5225200;28;20092;-72
2023/07/04 05:28:07;;;;;;;32.20;5.20;;;;;;;;;;5225054;28;20158;-71
2023/07/04 05:30:37;;;;;;;29.25;5.03;;;;;;;;;;5225109;28;20021;-71
2023/07/04 05:33:08;;;;;;;32.70;4.35;;;;;;;;;;5224875;28;20051;-72
2023/07/04 05:35:38;;;;;;;25.40;6.03;;;;;;;;;;5224631;28;20020;-72
2023/07/04 05:38:08;;;;;;;23.83;4.85;;;;;;;;;;5224789;28;20025;-71
2023/07/04 05:40:40;;;;;;;27.60;5.63;;;;;;;;;;5225058;28;20016;-71
2023/07/04 05:43:10;;;;;;;23.25;4.38;;;;;;;;;;5224911;28;20020;-72
2023/07/04 05:45:46;;;;;;;39.80;5.57;;;;;;;;;;5224241;28;20021;-72
2023/07/04 05:48:17;;;;;;;25.88;5.22;;;;;;;;;;5224222;28;20474;-72
2023/07/04 05:51:03;;;;;;;20.42;4.97;;;;;;;;;;5224772;28;20036;-72
2023/07/04 05:53:34;;;;;;;24.40;4.88;;;;;;;;;;5224792;28;20036;-72
2023/07/04 05:56:06;;;;;;;26.90;4.32;;;;;;;;;;5224368;28;20028;-72
2023/07/04 05:58:37;;;;;;;12.82;4.05;;;;;;;;;;5224803;28;20459;-72
2023/07/04 06:01:07;;;;;;;21.23;3.95;;;;;;;;;;5224658;28;20037;-72
2023/07/04 06:03:38;;;;;;;25.65;4.43;;;;;;;;;;5224825;28;20025;-72
2023/07/04 06:06:15;;;;;;;22.13;4.20;;;;;;;;;;5224618;28;20025;-72
2023/07/04 06:08:45;;;;;;;20.80;3.95;;;;;;;;;;5224269;28;20098;-72
2023/07/04 06:11:16;;;;;;;20.13;4.65;;;;;;;;;;5224506;28;20045;-72
2023/07/04 06:13:46;;;;;;;25.88;5.03;;;;;;;;;;5224630;28;20108;-72
2023/07/04 06:16:16;;;;;;;19.52;3.83;;;;;;;;;;5223723;28;20020;-72
2023/07/04 06:18:47;;;;;;;25.88;4.43;;;;;;;;;;5210829;28;20040;-72
2023/07/04 06:21:36;;;;;;;21.27;3.72;;;;;;;;;;5224036;28;20118;-72
2023/07/04 06:24:06;;;;;;;17.98;3.45;;;;;;;;;;5224192;28;20150;-72
2023/07/04 06:26:37;;;;;;;20.65;3.72;;;;;;;;;;5223981;28;20464;-72
2023/07/04 06:29:07;;;;;;;18.67;3.85;;;;;;;;;;5224241;28;20066;-72
2023/07/04 06:31:41;;;;;;;15.38;3.55;;;;;;;;;;5224406;28;20028;-72
2023/07/04 06:34:12;;;;;;;18.58;2.97;;;;;;;;;;5224554;28;20138;-72
2023/07/04 06:36:48;;;;;;;16.88;4.20;;;;;;;;;;5224103;28;20419;-72
2023/07/04 06:39:18;;;;;;;15.43;3.53;;;;;;;;;;5224362;28;20021;-72
2023/07/04 06:41:49;;;;;;;12.90;2.92;;;;;;;;;;5224047;28;20154;-72
2023/07/04 06:44:19;;;;;;;18.55;3.15;;;;;;;;;;5224037;28;20040;-72
2023/07/04 06:46:50;;;;;;;14.05;2.95;;;;;;;;;;5223831;28;20475;-72
2023/07/04 06:49:20;;;;;;;16.88;3.65;;;;;;;;;;5224088;28;20013;-73
2023/07/04 06:51:50;;;;;;;15.18;3.08;;;;;;;;;;5224061;28;20299;-72
2023/07/04 06:54:20;;;;;;;16.45;4.00;;;;;;;;;;5223906;28;20383;-73
2023/07/04 06:56:51;;;;;;;15.27;3.50;;;;;;;;;;5223529;28;20021;-72
2023/07/04 06:59:21;;;;;;;15.32;3.78;;;;;;;;;;5224135;28;20028;-73
2023/07/04 07:01:51;;;;;;;14.95;3.10;;;;;;;;;;5226219;28;20064;-73
2023/07/04 07:04:22;;;;;;;10.60;2.90;;;;;;;;;;5228106;28;20166;-72
2023/07/04 07:06:52;;;;;;;15.18;2.90;;;;;;;;;;5227454;28;20024;-72
2023/07/04 07:09:23;;;;;;;17.43;3.50;;;;;;;;;;5227772;28;20526;-72
2023/07/04 07:11:53;;;;;;;16.48;3.20;;;;;;;;;;5227953;28;20256;-72
2023/07/04 07:14:24;;;;;;;20.05;3.47;;;;;;;;;;5227910;28;20150;-73
2023/07/04 07:17:10;;;;;;;17.83;3.38;;;;;;;;;;5227235;28;20025;-72
2023/07/04 07:19:42;;;;;;;15.35;3.08;;;;;;;;;;5216106;28;20048;-72
2023/07/04 07:22:12;;;;;;;15.90;3.22;;;;;;;;;;5227654;28;20017;-73
2023/07/04 07:24:42;;;;;;;17.67;3.42;;;;;;;;;;5227585;28;20090;-73
2023/07/04 07:27:13;;;;;;;16.65;4.15;;;;;;;;;;5227099;28;20025;-72
2023/07/04 07:29:46;;;;;;;13.90;3.13;;;;;;;;;;5227799;28;20231;-72
2023/07/04 07:32:16;;;;;;;17.23;3.10;;;;;;;;;;5227480;28;20060;-72
2023/07/04 07:34:47;;;;;;;18.60;3.13;;;;;;;;;;5227606;28;20422;-72
2023/07/04 07:37:17;;;;;;;22.45;4.22;;;;;;;;;;5226905;28;20102;-72
2023/07/04 07:39:48;;;;;;;13.48;3.15;;;;;;;;;;5227268;28;20020;-72
2023/07/04 07:42:19;;;;;;;16.08;3.72;;;;;;;;;;5226917;28;20098;-73
2023/07/04 07:44:49;;;;;;;17.77;3.97;;;;;;;;;;5227176;28;20481;-73
2023/07/04 07:47:19;;;;;;;16.67;3.40;;;;;;;;;;5227077;28;20066;-73
2023/07/04 07:49:50;;;;;;;23.95;4.13;;;;;;;;;;5227001;28;20363;-73
2023/07/04 07:52:21;;;;;;;16.30;3.75;;;;;;;;;;5227314;28;20028;-73
2023/07/04 07:54:51;;;;;;;20.75;3.78;;;;;;;;;;5226689;28;20021;-73
2023/07/04 07:57:21;;;;;;;17.45;3.63;;;;;;;;;;5226683;28;20028;-73
2023/07/04 07:59:52;;;;;;;19.90;3.72;;;;;;;;;;5226915;28;20493;-72
2023/07/04 08:02:23;;;;;;;21.75;3.90;;;;;;;;;;5226972;28;20036;-73
2023/07/04 08:04:53;;;;;;;15.43;3.55;;;;;;;;;;5227107;28;20017;-73
2023/07/04 08:07:23;;;;;;;13.43;3.20;;;;;;;;;;5226014;28;20368;-73
2023/07/04 08:09:54;;;;;;;15.88;3.60;;;;;;;;;;5226877;28;20381;-73
2023/07/04 08:12:24;;;;;;;10.80;3.08;;;;;;;;;;5226334;28;20039;-73
2023/07/04 08:14:54;;;;;;;14.30;3.55;;;;;;;;;;5226605;28;20048;-73
2023/07/04 08:17:24;;;;;;;17.88;3.35;;;;;;;;;;5220897;28;20031;-73
2023/07/04 08:19:55;;;;;;;11.32;3.33;;;;;;;;;;5216733;28;20493;-73
2023/07/04 08:22:25;;;;;;;13.98;3.42;;;;;;;;;;5226657;28;20046;-73
2023/07/04 08:24:56;;;;;;;16.27;3.58;;;;;;;;;;5226446;28;20024;-73
2023/07/04 08:27:26;;;;;;;10.30;2.40;;;;;;;;;;5225848;28;20477;-73
2023/07/04 08:29:56;;;;;;;13.23;3.30;;;;;;;;;;5226362;28;20025;-73
2023/07/04 08:32:29;;;;;;;14.35;3.65;;;;;;;;;;5224790;28;20479;-73
2023/07/04 08:34:59;;;;;;;15.75;3.42;;;;;;;;;;5226342;28;20509;-73
2023/07/04 08:37:30;;;;;;;14.27;3.15;;;;;;;;;;5225973;28;20053;-73
2023/07/04 08:40:00;;;;;;;10.88;2.70;;;;;;;;;;5226033;28;20029;-73
2023/07/04 08:42:32;;;;;;;16.33;3.00;;;;;;;;;;5226147;28;20443;-73
2023/07/04 08:45:05;;;;;;;13.55;3.08;;;;;;;;;;5225572;28;20047;-73
2023/07/04 08:47:36;;;;;;;16.30;3.53;;;;;;;;;;5225490;28;20021;-73
2023/07/04 08:50:11;;;;;;;22.67;3.63;;;;;;;;;;5226041;28;20013;-74
2023/07/04 08:52:48;;;;;;;15.07;2.85;;;;;;;;;;5226071;28;20021;-73
2023/07/04 08:55:18;;;;;;;13.23;3.30;;;;;;;;;;5212571;28;20013;-74
2023/07/04 08:57:49;;;;;;;13.40;3.60;;;;;;;;;;5225284;28;20083;-73
2023/07/04 09:00:20;;;;;;;17.23;3.40;;;;;;;;;;5225854;28;20102;-74
2023/07/04 09:02:56;;;;;;;14.88;3.65;;;;;;;;;;5225791;28;20353;-73
2023/07/04 09:05:47;;;;;;;15.88;3.15;;;;;;;;;;5225700;28;20029;-74
2023/07/04 09:08:17;;;;;;;9.50;3.25;;;;;;;;;;5212450;28;20013;-74
2023/07/04 09:10:50;;;;;;;12.87;2.97;;;;;;;;;;5225522;28;20029;-73
2023/07/04 09:13:22;;;;;;;9.27;2.75;;;;;;;;;;5225629;28;20325;-73
2023/07/04 09:15:53;;;;;;;18.55;3.95;;;;;;;;;;5224978;28;20028;-74
2023/07/04 09:18:42;;;;;;;10.40;3.15;;;;;;;;;;5212950;28;20025;-74
2023/07/04 09:21:14;;;;;;;13.73;3.45;;;;;;;;;;5213318;28;20029;-74
2023/07/04 09:23:45;;;;;;;14.75;3.38;;;;;;;;;;5224251;28;20028;-74
2023/07/04 09:26:17;;;;;;;19.05;3.63;;;;;;;;;;5224942;28;20074;-73
2023/07/04 09:28:49;;;;;;;9.60;2.70;;;;;;;;;;5224516;28;20060;-73
2023/07/04 09:31:21;;;;;;;11.23;3.08;;;;;;;;;;5225398;28;20013;-74
2023/07/04 09:33:53;;;;;;;17.15;2.83;;;;;;;;;;5225141;28;20028;-74
2023/07/04 09:36:42;;;;;;;9.20;2.88;;;;;;;;;;5224877;28;20525;-74
2023/07/04 09:39:12;;;;;;;10.40;2.90;;;;;;;;;;5223563;28;20029;-73
2023/07/04 09:41:54;;;;;;;11.23;3.25;;;;;;;;;;5225029;28;20659;-74
2023/07/04 09:44:27;;;;;;;11.13;3.03;;;;;;;;;;5224985;28;20158;-74
2023/07/04 09:46:59;;;;;;;12.00;3.55;;;;;;;;;;5224603;28;20020;-72
2023/07/04 09:49:31;;;;;;;17.15;3.67;;;;;;;;;;5224286;28;20474;-72
2023/07/04 09:52:12;;;;;;;12.85;3.10;;;;;;;;;;5224846;28;20016;-72
2023/07/04 09:54:42;;;;;;;9.65;2.83;;;;;;;;;;5224686;28;20035;-71
2023/07/04 09:57:28;;;;;;;12.77;2.78;;;;;;;;;;5224292;28;20021;-72
2023/07/04 10:00:16;;;;;;;16.60;2.60;;;;;;;;;;5224398;28;20024;-72
2023/07/04 10:02:48;;;;;;;11.68;2.97;;;;;;;;;;5224392;28;20033;-71
2023/07/04 10:05:37;;;;;;;12.45;2.92;;;;;;;;;;5225102;28;20009;-72
2023/07/04 10:08:09;;;;;;;16.52;3.03;;;;;;;;;;5224114;28;20025;-72
2023/07/04 10:10:43;;;;;;;10.68;3.28;;;;;;;;;;5225093;28;20009;-72
2023/07/04 10:13:13;;;;;;;9.18;2.42;;;;;;;;;;5224616;28;20027;-71
2023/07/04 10:15:45;;;;;;;11.13;2.88;;;;;;;;;;5224092;28;20021;-71
2023/07/04 10:18:27;;;;;;;14.27;3.13;;;;;;;;;;5213496;28;20013;-72
2023/07/04 10:20:59;;;;;;;9.18;3.00;;;;;;;;;;5223568;28;20491;-72
2023/07/04 10:23:30;;;;;;;11.02;3.17;;;;;;;;;;5224356;28;20021;-72
2023/07/04 10:26:01;;;;;;;12.27;3.05;;;;;;;;;;5224053;28;20025;-71
2023/07/04 10:28:33;;;;;;;11.48;3.30;;;;;;;;;;5224494;28;20451;-72
2023/07/04 10:31:08;;;;;;;11.20;2.90;;;;;;;;;;5224224;28;20071;-71
2023/07/04 10:33:44;;;;;;;12.25;4.20;;;;;;;;;;5224568;28;20412;-72
2023/07/04 10:36:18;;;;;;;18.00;3.17;;;;;;;;;;5227308;28;20482;-72
2023/07/04 10:38:50;;;;;;;14.68;3.97;;;;;;;;;;5228246;28;20051;-72
2023/07/04 10:41:36;;;;;;;16.58;4.15;;;;;;;;;;5228954;28;20475;-72
2023/07/04 10:44:21;;;;;;;15.02;3.65;;;;;;;;;;5228517;28;20048;-72
2023/07/04 10:46:55;;;;;;;15.70;4.18;;;;;;;;;;5228438;28;20100;-72
2023/07/04 10:49:27;;;;;;;11.80;4.10;;;;;;;;;;5228248;28;20017;-72
2023/07/04 10:52:02;;;;;;;15.23;4.00;;;;;;;;;;5227990;28;20029;-72
2023/07/04 10:54:32;;;;;;;14.35;4.07;;;;;;;;;;5228159;28;20024;-72
2023/07/04 10:57:18;;;;;;;14.70;3.75;;;;;;;;;;5227697;28;20086;-72
2023/07/04 10:59:50;;;;;;;13.65;4.55;;;;;;;;;;5227934;28;20044;-72
2023/07/04 11:02:33;;;;;;;13.75;4.63;;;;;;;;;;5227390;28;20323;-72
2023/07/04 11:05:09;;;;;;;11.25;3.97;;;;;;;;;;5228366;28;20024;-72
2023/07/04 11:07:42;;;;;;;14.65;4.25;;;;;;;;;;5227484;28;20017;-72
2023/07/04 11:10:13;;;;;;;15.85;4.38;;;;;;;;;;5228067;28;20491;-71
2023/07/04 11:12:43;;;;;;;12.23;3.97;;;;;;;;;;5227497;28;20387;-72
2023/07/04 11:15:27;;;;;;;14.63;4.20;;;;;;;;;;5227711;28;20029;-72
2023/07/04 11:17:59;;;;;;;14.82;4.63;;;;;;;;;;5213928;28;20021;-72
2023/07/04 11:20:46;;;;;;;13.13;4.20;;;;;;;;;;5222917;28;20578;-71
2023/07/04 11:23:19;;;;;;;17.17;4.65;;;;;;;;;;5227291;28;20057;-72
2023/07/04 11:26:08;;;;;;;12.25;4.55;;;;;;;;;;5227022;28;20024;-72
2023/07/04 11:28:38;;;;;;;14.50;4.40;;;;;;;;;;5227405;28;20092;-72
2023/07/04 11:31:24;;;;;;;16.50;4.95;;;;;;;;;;5227634;28;20474;-72
2023/07/04 11:33:56;;;;;;;15.38;4.90;;;;;;;;;;5227277;28;20029;-72
2023/07/04 11:36:45;;;;;;;19.05;5.18;;;;;;;;;;5226969;28;20024;-72
2023/07/04 11:39:33;;;;;;;18.02;4.60;;;;;;;;;;5227230;28;20028;-72
2023/07/04 11:42:15;;;;;;;13.13;4.60;;;;;;;;;;5227022;28;20067;-72
2023/07/04 11:44:48;;;;;;;18.38;5.07;;;;;;;;;;5227252;28;20435;-72
2023/07/04 11:47:31;;;;;;;14.00;4.93;;;;;;;;;;5226079;28;20025;-72
2023/07/04 11:50:03;;;;;;;14.10;5.05;;;;;;;;;;5227018;28;20070;-72
2023/07/04 11:52:33;;;;;;;15.70;5.50;;;;;;;;;;5226854;28;20033;-72
2023/07/04 11:55:07;;;;;;;16.17;5.15;;;;;;;;;;5226882;28;20028;-73
2023/07/04 11:57:56;;;;;;;13.90;5.68;;;;;;;;;;5226731;28;20021;-72
2023/07/04 12:00:45;;;;;;;16.10;5.07;;;;;;;;;;5226036;28;20517;-72
2023/07/04 12:03:17;;;;;;;18.02;5.38;;;;;;;;;;5213982;28;20128;-72
2023/07/04 12:05:50;;;;;;;15.35;5.63;;;;;;;;;;5226536;28;20099;-71
2023/07/04 12:08:32;;;;;;;9.00;4.32;;;;;;;;;;5226747;28;20013;-72
2023/07/04 12:11:18;;;;;;;13.68;5.20;;;;;;;;;;5226785;28;20474;-72
2023/07/04 12:13:49;;;;;;;16.65;5.07;;;;;;;;;;5226589;28;20064;-72
2023/07/04 12:16:20;;;;;;;10.05;5.03;;;;;;;;;;5226318;28;20017;-72
2023/07/04 12:18:50;;;;;;;11.10;4.68;;;;;;;;;;5213147;28;20028;-72
2023/07/04 12:21:21;;;;;;;17.50;5.43;;;;;;;;;;5226527;28;20021;-72
2023/07/04 12:23:52;;;;;;;16.50;5.28;;;;;;;;;;5225955;28;20470;-72
2023/07/04 12:26:22;;;;;;;15.93;5.20;;;;;;;;;;5226165;28;20036;-71
2023/07/04 12:28:53;;;;;;;11.05;5.40;;;;;;;;;;5226187;28;20025;-72
2023/07/04 12:31:23;;;;;;;13.80;5.00;;;;;;;;;;5226664;28;20395;-72
2023/07/04 12:33:53;;;;;;;14.60;4.93;;;;;;;;;;5226128;28;20027;-71
2023/07/04 12:36:31;;;;;;;14.43;5.40;;;;;;;;;;5225765;28;20190;-71
2023/07/04 12:39:03;;;;;;;14.52;5.40;;;;;;;;;;5226235;28;20025;-71
2023/07/04 12:41:34;;;;;;;14.48;4.72;;;;;;;;;;5226393;28;20140;-71
2023/07/04 12:44:08;;;;;;;12.63;5.32;;;;;;;;;;5226179;28;20167;-71
2023/07/04 12:46:40;;;;;;;10.97;4.37;;;;;;;;;;5225345;28;20158;-72
2023/07/04 12:49:11;;;;;;;12.48;5.65;;;;;;;;;;5226106;28;20259;-72
2023/07/04 12:51:43;;;;;;;13.35;4.65;;;;;;;;;;5226242;28;20021;-74
2023/07/04 12:54:14;;;;;;;15.10;5.10;;;;;;;;;;5226137;28;20075;-73
2023/07/04 12:56:46;;;;;;;12.73;5.07;;;;;;;;;;5225473;28;20027;-74
2023/07/04 12:59:28;;;;;;;13.70;4.80;;;;;;;;;;5225467;28;20108;-74
2023/07/04 13:02:01;;;;;;;11.88;5.20;;;;;;;;;;5225663;28;20057;-74
2023/07/04 13:04:32;;;;;;;14.63;4.68;;;;;;;;;;5225494;28;20020;-73
2023/07/04 13:07:03;;;;;;;10.02;4.60;;;;;;;;;;5225383;28;20352;-73
2023/07/04 13:09:33;;;;;;;8.68;4.15;;;;;;;;;;5225110;28;20024;-73
2023/07/04 13:12:03;;;;;;;18.05;4.32;;;;;;;;;;5225735;28;20036;-74
2023/07/04 13:14:34;;;;;;;11.75;4.68;;;;;;;;;;5225245;28;20104;-74
2023/07/04 13:17:25;;;;;;;10.70;4.47;;;;;;;;;;5223767;28;20021;-74
2023/07/04 13:19:55;;;;;;;12.68;4.57;;;;;;;;;;5215429;28;20264;-74
2023/07/04 13:22:26;;;;;;;10.98;4.60;;;;;;;;;;5225165;28;20036;-73
2023/07/04 13:24:56;;;;;;;12.27;5.20;;;;;;;;;;5225312;28;20352;-74
2023/07/04 13:27:26;;;;;;;14.88;4.28;;;;;;;;;;5224960;28;20078;-74
2023/07/04 13:29:58;;;;;;;11.45;4.43;;;;;;;;;;5225192;28;20044;-74
2023/07/04 13:32:47;;;;;;;13.25;4.50;;;;;;;;;;5225025;28;20100;-74
2023/07/04 13:35:33;;;;;;;11.30;4.40;;;;;;;;;;5224978;28;20095;-74
2023/07/04 13:38:04;;;;;;;11.70;4.35;;;;;;;;;;5224711;28;20100;-73
2023/07/04 13:40:34;;;;;;;13.95;4.35;;;;;;;;;;5224975;28;20025;-74
2023/07/04 13:43:07;;;;;;;10.23;4.22;;;;;;;;;;5225040;28;20027;-73
2023/07/04 13:45:38;;;;;;;11.02;4.72;;;;;;;;;;5224792;28;20017;-73
2023/07/04 13:48:09;;;;;;;10.35;4.25;;;;;;;;;;5224659;28;20021;-74
2023/07/04 13:50:39;;;;;;;16.60;4.60;;;;;;;;;;5223783;28;20475;-73
2023/07/04 13:53:09;;;;;;;10.77;3.80;;;;;;;;;;5224457;28;20029;-73
2023/07/04 13:55:39;;;;;;;14.30;4.68;;;;;;;;;;5224503;28;20370;-73
2023/07/04 13:58:10;;;;;;;13.98;4.32;;;;;;;;;;5224444;28;20107;-74
2023/07/04 14:00:40;;;;;;;11.98;4.50;;;;;;;;;;5224598;28;20028;-74
2023/07/04 14:03:11;;;;;;;14.43;4.55;;;;;;;;;;5224510;28;20021;-74
2023/07/04 14:05:41;;;;;;;16.02;4.35;;;;;;;;;;5223693;28;20025;-74
2023/07/04 14:08:12;;;;;;;12.73;4.18;;;;;;;;;;5224830;28;20438;-73
2023/07/04 14:10:42;;;;;;;12.60;4.22;;;;;;;;;;5223977;28;20104;-74
2023/07/04 14:13:12;;;;;;;11.60;4.40;;;;;;;;;;5224711;28;20017;-74
2023/07/04 14:15:43;;;;;;;10.43;4.68;;;;;;;;;;5223955;28;20055;-74
2023/07/04 14:18:14;;;;;;;13.98;5.15;;;;;;;;;;5213413;28;20105;-73
2023/07/04 14:20:44;;;;;;;11.80;4.32;;;;;;;;;;5221445;28;20025;-73
2023/07/04 14:23:16;;;;;;;9.27;4.10;;;;;;;;;;5224435;28;20051;-73
2023/07/04 14:25:46;;;;;;;13.10;4.78;;;;;;;;;;5223820;28;20013;-73
2023/07/04 14:28:17;;;;;;;12.20;4.32;;;;;;;;;;5224235;28;20426;-73
2023/07/04 14:30:47;;;;;;;14.85;4.55;;;;;;;;;;5224050;28;20063;-73
2023/07/04 14:33:17;;;;;;;14.77;4.85;;;;;;;;;;5224469;28;20332;-73
2023/07/04 14:35:48;;;;;;;10.65;4.57;;;;;;;;;;5223992;28;20486;-73
2023/07/04 14:38:19;;;;;;;11.38;4.20;;;;;;;;;;5224258;28;20540;-73
2023/07/04 14:40:49;;;;;;;12.88;4.53;;;;;;;;;;5224469;28;20033;-73
2023/07/04 14:43:19;;;;;;;13.70;5.07;;;;;;;;;;5223955;28;20557;-73
2023/07/04 14:46:06;;;;;;;9.05;4.50;;;;;;;;;;5223831;28;20100;-73
2023/07/04 14:48:37;;;;;;;8.02;4.35;;;;;;;;;;5224004;28;20027;-73
2023/07/04 14:51:09;;;;;;;10.57;4.63;;;;;;;;;;5224490;28;20017;-73
2023/07/04 14:53:41;;;;;;;16.98;5.15;;;;;;;;;;5223975;28;20029;-73
2023/07/04 14:56:13;;;;;;;14.95;5.00;;;;;;;;;;5223978;28;20021;-73
2023/07/04 14:58:44;;;;;;;11.35;4.40;;;;;;;;;;5224062;28;20116;-72
2023/07/04 15:01:16;;;;;;;9.07;4.22;;;;;;;;;;5224175;28;20112;-73
2023/07/04 15:03:47;;;;;;;13.23;4.82;;;;;;;;;;5224044;28;20442;-72